Hlavní strana
METAR-TAF:

METAR-TAF

Letiště :

Kufra, Libye

zeměpisná šířka: 24-13N, zeměpisná délka: 023-18E, výška: 417 m

METAR: chybějící

Čas: 01:00 (23:00 UTC)

Předpověď počasí

Zpráva byla vytvořena před 6 hodinami a 0 minutami, v 17:00 UTC
Předpověď platná od 18 v 18 UTC do 19 v 18 UTC
Severoseverozápadní vítr 10 kt
Viditelnost 10 km a více
Skoro jasno ve výšce 4000 ft
Změna
od 19 v 00 UTC do 19 v 02 UTC
vítr z různých směrů 2 kt
Změna
od 19 v 10 UTC do 19 v 12 UTC
Severní vítr 10 kt

TAF: HLKF 181700Z 1818/1918 33010KT 9999 FEW040 BECMG 1900/1902 VRB02KT BECMG 1910/1912 36010KT

Stav a předpovědi počasí z více než 4 000 letišť (zprávy METAR a TAF).

Červené a žluté tečky na mapě představují dostupné meteorologické stanice.

Když kurzor umístíte na tečku, zobrazí se název stanice.

Pak kliknutím zobrazíte stav a předpověď počasí.

Chcete-li změnit mapu, kliknutím na zelené tlačítko se znaménkem +mapu přiblížíte, kliknutím na zelené tlačítko se znaménkem – mapu oddálíte a kliknutím na zelené šipky přejdete na sousední mapy.


METAR-TAF: